首页
METAR-TAF:

METAR-TAF

机场 :

盧布爾雅那約熱·普奇尼克機場

卢布尔雅那, 斯洛文尼亚

纬度: 46-13N, 经度: 014-29E, 海拔: 385米

当前天气观测

该预报发布于16分钟前的03:30 UTC
风速10节,风向
温度 14°C
湿度 94%
气压 996 hPa
能見度: 8000
少量云层高于700英尺
散云层高于2500英尺
多云层高于4000英尺

METAR: LJLJ 050330Z 10010KT 8000 RA FEW007 SCT025 BKN040 14/13 Q0996 NOSIG

时间: 05:46 (03:46 UTC)

预报

该预报发布于4小时和46分钟前的23:00 UTC
预报有效从05日的 00点(UTC)到 05日的 24点(UTC)
风速5节,风向西南
能見度: 7000
散云层高于2000英尺
多云层高于3000英尺
几率 30% :
短暂存在
从 05日的 02点(UTC)到 05日的 20点(UTC)
能見度: 5000
散云层高于3500英尺, 积雨云.
多云层高于4000英尺
雷暴, 雨
成为
从 05日的 06点(UTC)到 05日的 08点(UTC)
短暂存在
从 05日的 06点(UTC)到 05日的 24点(UTC)
能見度: 5000
少量云层高于3000英尺, 积雨云.
多云层高于4000英尺
阵雨

TAF: LJLJ 042300Z 0500/0524 23005KT 7000 RA SCT020 BKN030 PROB30 TEMPO 0502/0520 5000 TSRA SCT035CB BKN040 BECMG 0506/0508 NSW TEMPO 0506/0524 5000 SHRA FEW030CB BKN040

超过4000个机场的气象观测和天气预报(METAR&TAF报告)。

可查询的气象台以黄色和红色小点在地图上表示。

将鼠标移到小点上方,可查看气象台名称。

然后点击查看天气观测和预报。

如需切换地图:点击带黑十字的绿色按钮放大地图;点击带横线的绿色按钮缩小地图;或者点击绿色箭头查看邻近地区的地图。


METAR-TAF: